Aérodrome :
LOGIN :

S'inscrire | Disclaimer

   EN    FR    IT 

 










Légende :    VFR   VFR Marginal   IFR   IFR Intensif   IFR Très Intensif
Visi : 
Plafond : 
>= 8 km
>= 3000ft
5 à 8 km
1000 à 3000 ft
1500m à 5 km
500 à 1000 ft
800 à 1500m
200 à 500 ft
< 800m
< 200 ft
Symboles :   Orages  Brouillard  Fortes neiges  Fortes précipitations  Vent > 20 kt
SIGMETs :   Divers  Orages  Givrage  Turbulence  Onde Orograph.  Cendres Volcan.






- Altitude de l'aérodrome : 56 ft
- Code IATA : ILY


EGPI - Islay

DERNIER METAR :
  • 242220Z AUTO 12007KT 9999 NCD 07/07 Q1031

METARs EXPIRÉS :
  • 242150Z AUTO 12006KT 090V150 9999 NCD 07/06 Q1030
  • 242120Z AUTO 13005KT 9999 NCD 07/06 Q1030
  • 242050Z AUTO VRB03KT 9999 NCD 09/06 Q1030
  • 242020Z AUTO 34001KT 9999 NCD 11/08 Q1030
  • 241950Z AUTO VRB02KT 9999 FEW039/// 12/09 Q1030

TAF TAF EGPI
Valide du 24 à 21h jusqu'au 25 à 06h UTC


242002Z 2421/2506 26010KT 9999 SCT040
BECMG 2421/2424 16009KT



MET'MAP, la Météo Aéronautique d'un coup d'oeil ! - Copyright ORBIFLY Décembre 2007 - Disclaimer

ORBIFLY MET'MAP TEAM :

Programmation & Développement : Alexandra Zaïnal
Sur une idée originale de : Baudouin d'Aumeries
Assistance à la programmation : Marc-Olivier Méhu
Soutien technique & logistique : Manuel Goepfert

Contact : metmap@orbifly.com




SOURCES & CREDITS :

   NOAA